Time;durP1;ratioP1;P1;durP2;ratioP2;P2;SDS_P1;SDS_P2;PMS_P1;PMS_P2;Temp;Humidity;BMP_temperature;BMP_pressure;BME280_temperature;BME280_humidity;BME280_pressure;Samples;Min_cycle;Max_cycle;Signal;HPM_P1;HPM_P2
2021/01/27 00:00:14;;;;;;;0.50;0.50;;;-2.30;99.90;;;;;;5090168;28;20157;-69
2021/01/27 00:02:39;;;;;;;0.30;0.30;;;-2.50;99.90;;;;;;5089999;28;20200;-69
2021/01/27 00:05:08;;;;;;;6.30;1.58;;;-2.60;99.90;;;;;;5077682;28;20201;-68
2021/01/27 00:07:34;;;;;;;0.20;0.20;;;-2.60;99.90;;;;;;5069810;28;20172;-68
2021/01/27 00:09:59;;;;;;;0.13;0.13;;;-2.60;99.90;;;;;;5069790;28;20157;-68
2021/01/27 00:12:26;;;;;;;0.17;0.17;;;-2.70;99.90;;;;;;5068140;28;20183;-69
2021/01/27 00:14:52;;;;;;;0.30;0.30;;;-2.60;99.90;;;;;;5068368;28;20201;-69
2021/01/27 00:17:18;;;;;;;0.50;0.50;;;-2.70;99.90;;;;;;5069492;28;20195;-69
2021/01/27 00:19:43;;;;;;;0.20;0.20;;;-2.60;99.90;;;;;;5068215;28;20173;-69
2021/01/27 00:22:09;;;;;;;2.53;2.42;;;-2.70;99.90;;;;;;5078121;28;20207;-69
2021/01/27 00:24:35;;;;;;;0.30;0.30;;;-2.70;99.90;;;;;;5083316;28;20283;-69
2021/01/27 00:27:01;;;;;;;0.22;0.22;;;-2.90;99.90;;;;;;5089537;28;20156;-69
2021/01/27 00:29:27;;;;;;;0.47;0.47;;;-2.90;99.90;;;;;;5083268;28;20172;-69
2021/01/27 00:31:53;;;;;;;0.98;0.98;;;-3.00;99.90;;;;;;5069549;28;20165;-68
2021/01/27 00:34:21;;;;;;;0.15;0.15;;;-3.00;99.90;;;;;;5085243;28;20200;-68
2021/01/27 00:36:50;;;;;;;1.00;1.00;;;-3.00;99.90;;;;;;5087922;28;20167;-68
2021/01/27 00:39:17;;;;;;;0.20;0.20;;;-3.00;99.90;;;;;;5088025;28;20160;-69
2021/01/27 00:41:43;;;;;;;0.32;0.32;;;-2.90;99.90;;;;;;5088965;28;20235;-69
2021/01/27 00:44:09;;;;;;;0.20;0.20;;;-2.90;99.90;;;;;;5089084;28;20192;-69
2021/01/27 00:46:35;;;;;;;0.10;0.10;;;-2.90;99.90;;;;;;5089190;28;20160;-69
2021/01/27 00:49:02;;;;;;;0.20;0.20;;;-2.80;99.90;;;;;;5089093;28;20156;-69
2021/01/27 00:51:28;;;;;;;7.35;2.65;;;-2.70;99.90;;;;;;5089089;28;20156;-69
2021/01/27 00:53:55;;;;;;;0.40;0.40;;;-2.90;99.90;;;;;;5088949;28;20501;-69
2021/01/27 00:56:21;;;;;;;0.43;0.43;;;-2.90;99.90;;;;;;5088987;28;20219;-69
2021/01/27 00:58:48;;;;;;;0.85;0.82;;;-2.80;99.90;;;;;;5088920;28;20179;-68
2021/01/27 01:01:15;;;;;;;0.20;0.20;;;-2.80;99.90;;;;;;5088805;28;20164;-69
2021/01/27 01:03:41;;;;;;;0.20;0.20;;;-2.70;99.90;;;;;;5088715;28;20156;-68
2021/01/27 01:06:06;;;;;;;0.28;0.28;;;-3.00;99.90;;;;;;5088818;28;20179;-69
2021/01/27 01:08:32;;;;;;;0.50;0.50;;;-3.00;99.90;;;;;;5088812;28;20167;-68
2021/01/27 01:11:00;;;;;;;1.17;1.17;;;-3.20;99.90;;;;;;5088758;28;20168;-69
2021/01/27 01:13:30;;;;;;;1.75;1.65;;;-3.20;99.90;;;;;;5088749;28;20578;-69
2021/01/27 01:15:57;;;;;;;0.50;0.50;;;-3.40;99.90;;;;;;5087250;28;20191;-68
2021/01/27 01:18:23;;;;;;;0.40;0.40;;;-3.30;99.90;;;;;;5087341;28;20168;-68
2021/01/27 01:20:50;;;;;;;0.20;0.20;;;-3.30;99.90;;;;;;5088563;28;20156;-68
2021/01/27 01:23:19;;;;;;;1.60;1.50;;;-3.30;99.90;;;;;;5086978;28;20203;-69
2021/01/27 01:25:47;;;;;;;0.30;0.30;;;-3.30;99.90;;;;;;5088502;28;20382;-68
2021/01/27 01:28:14;;;;;;;0.20;0.20;;;-3.20;99.90;;;;;;5088080;28;20148;-68
2021/01/27 01:30:43;;;;;;;6.50;1.45;;;-3.20;99.90;;;;;;5088226;28;20203;-68
2021/01/27 01:33:15;;;;;;;0.15;0.15;;;-3.40;99.90;;;;;;5082280;28;20184;-68
2021/01/27 01:35:42;;;;;;;0.20;0.20;;;-3.30;99.90;;;;;;5067085;28;20196;-68
2021/01/27 01:38:09;;;;;;;0.65;0.65;;;-3.30;99.90;;;;;;5076227;28;20180;-69
2021/01/27 01:40:39;;;;;;;0.95;0.95;;;-3.50;99.90;;;;;;5087234;28;20211;-68
2021/01/27 01:43:15;;;;;;;0.57;0.57;;;-3.40;99.90;;;;;;5088302;28;20219;-68
2021/01/27 01:45:46;;;;;;;0.10;0.10;;;-3.40;99.90;;;;;;5088260;28;20151;-69
2021/01/27 01:48:16;;;;;;;0.73;0.73;;;-3.40;99.90;;;;;;5088224;28;20148;-68
2021/01/27 01:50:44;;;;;;;0.20;0.20;;;-3.40;99.90;;;;;;5086660;28;20688;-68
2021/01/27 01:53:11;;;;;;;0.22;0.22;;;-3.40;99.90;;;;;;5088354;28;20160;-68
2021/01/27 01:55:37;;;;;;;0.20;0.20;;;-3.50;99.90;;;;;;5088332;28;20164;-68
2021/01/27 01:58:04;;;;;;;0.10;0.10;;;-3.30;99.90;;;;;;5087009;28;20179;-69
2021/01/27 02:00:32;;;;;;;0.40;0.40;;;-3.30;99.90;;;;;;5086730;28;20266;-68
2021/01/27 02:02:59;;;;;;;0.88;0.88;;;-3.40;99.90;;;;;;5088995;28;20184;-69
2021/01/27 02:05:26;;;;;;;0.13;0.13;;;-3.40;99.90;;;;;;5088418;28;20168;-69
2021/01/27 02:07:57;;;;;;;0.68;0.68;;;-3.50;99.90;;;;;;5088123;28;20191;-69
2021/01/27 02:10:24;;;;;;;0.52;0.52;;;-3.50;99.90;;;;;;5088883;28;20191;-68
2021/01/27 02:13:14;;;;;;;0.10;0.10;;;-3.60;99.90;;;;;;5088736;28;20217;-68
2021/01/27 02:15:52;;;;;;;0.20;0.20;;;-3.50;99.90;;;;;;5087982;28;20251;-69
2021/01/27 02:18:26;;;;;;;0.20;0.20;;;-3.50;99.90;;;;;;5088731;28;20211;-70
2021/01/27 02:21:37;;;;;;;0.20;0.20;;;-3.50;99.90;;;;;;5087405;28;20198;-69
2021/01/27 02:24:02;;;;;;;0.13;0.13;;;-3.40;99.90;;;;;;5088227;28;20200;-68
2021/01/27 02:26:49;;;;;;;0.63;0.63;;;-3.20;99.90;;;;;;5088699;28;20171;-68
2021/01/27 02:29:44;;;;;;;0.20;0.20;;;-3.10;99.90;;;;;;5088625;28;20168;-69
2021/01/27 02:32:19;;;;;;;0.10;0.10;;;-3.10;99.90;;;;;;5087491;28;20536;-68
2021/01/27 02:34:53;;;;;;;1.48;1.13;;;-3.20;99.90;;;;;;5087673;28;20550;-68
2021/01/27 02:37:32;;;;;;;0.20;0.20;;;-3.40;99.90;;;;;;5088815;28;20156;-68
2021/01/27 02:40:05;;;;;;;0.52;0.52;;;-3.30;99.90;;;;;;5088753;28;20195;-68
2021/01/27 02:42:37;;;;;;;0.40;0.40;;;-3.20;99.90;;;;;;5092145;28;20273;-68
2021/01/27 02:45:30;;;;;;;0.20;0.20;;;-3.10;99.90;;;;;;5090413;28;20172;-68
2021/01/27 02:48:21;;;;;;;0.50;0.50;;;-3.00;99.90;;;;;;5091759;28;20171;-69
2021/01/27 02:50:58;;;;;;;2.35;2.15;;;-2.90;99.90;;;;;;5090133;28;20238;-69
2021/01/27 02:53:28;;;;;;;2.55;2.38;;;-2.90;99.90;;;;;;5091482;28;20194;-69
2021/01/27 02:56:03;;;;;;;1.77;1.67;;;-2.90;99.90;;;;;;5091463;28;20156;-69
2021/01/27 02:58:41;;;;;;;0.43;0.43;;;-3.00;99.90;;;;;;5089989;28;20595;-69
2021/01/27 03:01:39;;;;;;;0.50;0.50;;;-3.00;99.90;;;;;;5090075;28;20207;-69
2021/01/27 03:04:19;;;;;;;1.10;1.10;;;-3.20;99.90;;;;;;5090004;28;20207;-69
2021/01/27 03:06:47;;;;;;;0.38;0.38;;;-3.20;99.90;;;;;;5089787;28;20172;-69
2021/01/27 03:09:20;;;;;;;1.00;0.82;;;-3.20;99.90;;;;;;5091099;28;20243;-69
2021/01/27 03:11:46;;;;;;;0.30;0.30;;;-3.20;99.90;;;;;;5090927;28;20250;-69
2021/01/27 03:14:12;;;;;;;0.30;0.30;;;-3.20;99.90;;;;;;5090942;28;20672;-69
2021/01/27 03:16:47;;;;;;;0.10;0.10;;;-3.20;99.90;;;;;;5090918;28;20236;-69
2021/01/27 03:19:38;;;;;;;0.10;0.10;;;-3.50;99.90;;;;;;5090979;28;20160;-69
2021/01/27 03:22:19;;;;;;;0.43;0.43;;;-3.30;99.90;;;;;;5086582;28;20294;-70
2021/01/27 03:25:00;;;;;;;0.25;0.25;;;-3.30;99.90;;;;;;5090717;28;20156;-69
2021/01/27 03:27:32;;;;;;;1.13;1.05;;;-3.40;99.90;;;;;;5090593;28;20183;-70
2021/01/27 03:30:00;;;;;;;0.57;0.57;;;-3.50;99.90;;;;;;5089926;28;20192;-69
2021/01/27 03:32:45;;;;;;;0.38;0.38;;;-3.50;99.90;;;;;;5090560;28;20281;-70
2021/01/27 03:35:45;;;;;;;2.28;1.27;;;-3.50;99.90;;;;;;5090438;28;20220;-70
2021/01/27 03:38:23;;;;;;;0.30;0.30;;;-3.60;99.90;;;;;;5089185;28;20194;-69
2021/01/27 03:40:53;;;;;;;3.58;2.47;;;-3.50;99.90;;;;;;5088703;28;20252;-70
2021/01/27 03:43:30;;;;;;;0.47;0.47;;;-3.60;99.90;;;;;;5088827;28;20211;-69
2021/01/27 03:46:19;;;;;;;0.45;0.38;;;-3.50;99.90;;;;;;5090287;28;20166;-69
2021/01/27 03:49:01;;;;;;;0.28;0.28;;;-3.60;99.90;;;;;;5090424;28;20187;-70
2021/01/27 03:51:31;;;;;;;0.10;0.10;;;-3.70;99.90;;;;;;5088315;28;20215;-69
2021/01/27 03:54:03;;;;;;;1.00;1.00;;;-3.70;99.90;;;;;;5090148;28;20281;-69
2021/01/27 03:56:49;;;;;;;0.25;0.25;;;-3.60;99.90;;;;;;5090059;28;20148;-70
2021/01/27 03:59:16;;;;;;;0.20;0.20;;;-3.80;99.90;;;;;;5088490;28;20180;-69
2021/01/27 04:02:00;;;;;;;2.47;2.28;;;-3.70;99.90;;;;;;5088454;28;20646;-70
2021/01/27 04:04:27;;;;;;;2.30;2.00;;;-3.70;99.90;;;;;;5089991;28;20164;-69
2021/01/27 04:06:53;;;;;;;0.20;0.20;;;-3.90;99.90;;;;;;5088557;28;20164;-70
2021/01/27 04:09:20;;;;;;;0.30;0.30;;;-4.10;99.90;;;;;;5089867;28;20225;-69
2021/01/27 04:11:46;;;;;;;1.23;0.73;;;-4.20;99.90;;;;;;5089813;28;20208;-68
2021/01/27 04:14:12;;;;;;;1.60;1.50;;;-3.90;99.90;;;;;;5089799;28;20171;-68
2021/01/27 04:16:38;;;;;;;0.30;0.30;;;-3.90;99.90;;;;;;5088433;28;20179;-69
2021/01/27 04:19:06;;;;;;;0.15;0.15;;;-3.90;99.90;;;;;;5089645;28;20160;-68
2021/01/27 04:21:32;;;;;;;0.15;0.15;;;-3.90;99.90;;;;;;5089409;28;20188;-69
2021/01/27 04:23:58;;;;;;;0.32;0.32;;;-3.70;99.90;;;;;;5089719;28;20529;-69
2021/01/27 04:26:24;;;;;;;0.65;0.65;;;-3.80;99.90;;;;;;5088398;28;20203;-69
2021/01/27 04:28:51;;;;;;;0.60;0.60;;;-3.80;99.90;;;;;;5089906;28;20185;-69
2021/01/27 04:31:18;;;;;;;0.20;0.20;;;-3.80;99.90;;;;;;5089780;28;20191;-69
2021/01/27 04:33:45;;;;;;;0.22;0.22;;;-3.80;99.90;;;;;;5088848;28;20184;-69
2021/01/27 04:36:10;;;;;;;0.30;0.30;;;-3.90;99.90;;;;;;5089360;28;20156;-69
2021/01/27 04:38:36;;;;;;;0.25;0.25;;;-3.90;99.90;;;;;;5089511;28;20182;-69
2021/01/27 04:41:03;;;;;;;0.20;0.20;;;-3.90;99.90;;;;;;5087755;28;20212;-69
2021/01/27 04:43:32;;;;;;;0.13;0.13;;;-3.80;99.90;;;;;;5089527;28;20223;-69
2021/01/27 04:46:07;;;;;;;0.85;0.85;;;-3.90;99.90;;;;;;5089565;28;20157;-69
2021/01/27 04:49:08;;;;;;;0.20;0.20;;;-3.90;99.90;;;;;;5088067;28;20258;-69
2021/01/27 04:51:40;;;;;;;0.30;0.30;;;-3.90;99.90;;;;;;5087902;28;20226;-69
2021/01/27 04:54:06;;;;;;;0.10;0.10;;;-3.90;99.90;;;;;;5089401;28;20164;-69
2021/01/27 04:57:00;;;;;;;0.30;0.30;;;-3.90;99.90;;;;;;5089107;28;20163;-69
2021/01/27 04:59:44;;;;;;;0.20;0.20;;;-3.90;99.90;;;;;;5088737;28;20163;-69
2021/01/27 05:02:22;;;;;;;0.95;0.88;;;-4.00;99.90;;;;;;5087679;28;20195;-69
2021/01/27 05:05:07;;;;;;;0.10;0.10;;;-3.90;99.90;;;;;;5087150;28;20159;-69
2021/01/27 05:07:50;;;;;;;0.20;0.20;;;-3.90;99.90;;;;;;5089274;28;20157;-69
2021/01/27 05:10:21;;;;;;;0.70;0.70;;;-4.10;99.90;;;;;;5088857;28;20195;-69
2021/01/27 05:12:52;;;;;;;1.90;1.80;;;-4.30;99.90;;;;;;5087446;28;20195;-69
2021/01/27 05:15:18;;;;;;;1.75;1.13;;;-4.10;99.90;;;;;;5088808;28;20195;-69
2021/01/27 05:17:47;;;;;;;1.17;1.13;;;-4.10;99.90;;;;;;5088578;28;20153;-69
2021/01/27 05:20:18;;;;;;;0.10;0.10;;;-4.20;99.90;;;;;;5087412;28;20199;-69
2021/01/27 05:22:44;;;;;;;0.10;0.10;;;-4.00;99.90;;;;;;5088539;28;20242;-69
2021/01/27 05:25:33;;;;;;;0.47;0.47;;;-3.90;99.90;;;;;;5088849;28;20180;-69
2021/01/27 05:28:02;;;;;;;0.10;0.10;;;-4.10;99.90;;;;;;5086859;28;20179;-69
2021/01/27 05:30:50;;;;;;;0.32;0.32;;;-4.20;99.90;;;;;;5087321;28;20187;-69
2021/01/27 05:33:16;;;;;;;0.30;0.30;;;-4.30;99.90;;;;;;5088474;28;20224;-69
2021/01/27 05:35:42;;;;;;;0.10;0.10;;;-4.20;99.90;;;;;;5087276;28;20175;-70
2021/01/27 05:38:31;;;;;;;0.13;0.13;;;-4.30;99.90;;;;;;5088530;28;20164;-69
2021/01/27 05:41:19;;;;;;;1.13;1.05;;;-4.20;99.90;;;;;;5088173;28;20198;-69
2021/01/27 05:43:47;;;;;;;0.20;0.20;;;-4.40;99.90;;;;;;5087367;28;20172;-68
2021/01/27 05:46:27;;;;;;;0.40;0.40;;;-4.40;99.90;;;;;;5088344;28;20160;-68
2021/01/27 05:48:54;;;;;;;0.15;0.15;;;-4.40;99.90;;;;;;5087068;28;20164;-68
2021/01/27 05:51:34;;;;;;;0.17;0.17;;;-4.60;99.90;;;;;;5088207;28;20527;-68
2021/01/27 05:54:18;;;;;;;0.82;0.82;;;-4.40;99.90;;;;;;5088344;28;20189;-69
2021/01/27 05:56:44;;;;;;;0.17;0.17;;;-4.20;99.90;;;;;;5088258;28;20164;-69
2021/01/27 05:59:21;;;;;;;0.68;0.68;;;-4.30;99.90;;;;;;5088113;28;20186;-69
2021/01/27 06:01:49;;;;;;;0.43;0.43;;;-4.30;99.90;;;;;;5088042;28;20207;-69
2021/01/27 06:04:24;;;;;;;0.50;0.50;;;-4.20;99.90;;;;;;5088327;28;20167;-69
2021/01/27 06:06:50;;;;;;;0.20;0.20;;;-4.10;99.90;;;;;;5088111;28;20159;-69
2021/01/27 06:09:46;;;;;;;0.70;0.70;;;-4.20;99.90;;;;;;5086730;28;20163;-69
2021/01/27 06:12:25;;;;;;;0.30;0.30;;;-4.30;99.90;;;;;;5087944;28;20160;-68
2021/01/27 06:15:02;;;;;;;0.17;0.17;;;-4.10;99.90;;;;;;5089457;28;20164;-69
2021/01/27 06:17:39;;;;;;;0.25;0.25;;;-4.10;99.90;;;;;;5092212;28;20164;-69
2021/01/27 06:20:17;;;;;;;0.68;0.68;;;-4.20;99.90;;;;;;5092040;28;20672;-69
2021/01/27 06:23:05;;;;;;;0.28;0.28;;;-4.30;99.90;;;;;;5092000;28;20191;-69
2021/01/27 06:25:30;;;;;;;0.20;0.20;;;-4.20;99.90;;;;;;5091721;28;20156;-69
2021/01/27 06:28:20;;;;;;;1.88;0.90;;;-4.30;99.90;;;;;;5091625;28;20222;-69
2021/01/27 06:31:13;;;;;;;0.25;0.25;;;-4.10;99.90;;;;;;5090354;28;20176;-69
2021/01/27 06:34:03;;;;;;;0.20;0.20;;;-4.20;99.90;;;;;;5091396;28;20192;-68
2021/01/27 06:36:47;;;;;;;0.28;0.28;;;-4.30;99.90;;;;;;5090239;28;20662;-69
2021/01/27 06:39:28;;;;;;;1.00;0.98;;;-4.20;99.90;;;;;;5090142;28;20164;-69
2021/01/27 06:42:26;;;;;;;1.50;1.45;;;-4.40;99.90;;;;;;5091219;28;20253;-69
2021/01/27 06:45:10;;;;;;;0.13;0.13;;;-4.50;99.90;;;;;;5091440;28;20195;-69
2021/01/27 06:47:55;;;;;;;0.20;0.20;;;-4.50;99.90;;;;;;5090327;28;20171;-69
2021/01/27 06:50:58;;;;;;;0.68;0.68;;;-4.40;99.90;;;;;;5091232;28;20215;-69
2021/01/27 06:53:41;;;;;;;1.55;1.48;;;-4.30;99.90;;;;;;5091309;28;20194;-69
2021/01/27 06:56:31;;;;;;;0.20;0.20;;;-4.20;99.90;;;;;;5091337;28;20160;-69
2021/01/27 06:59:12;;;;;;;0.10;0.10;;;-4.30;99.90;;;;;;5090096;28;20195;-69
2021/01/27 07:02:08;;;;;;;0.15;0.15;;;-4.30;99.90;;;;;;5090115;28;20190;-69
2021/01/27 07:05:02;;;;;;;1.67;1.58;;;-4.20;99.90;;;;;;5089701;28;20192;-69
2021/01/27 07:08:05;;;;;;;0.10;0.10;;;-4.20;99.90;;;;;;5089731;28;20183;-70
2021/01/27 07:10:59;;;;;;;0.10;0.10;;;-4.20;99.90;;;;;;5090843;28;20172;-69
2021/01/27 07:13:52;;;;;;;0.73;0.73;;;-4.00;99.90;;;;;;5090919;28;20202;-69
2021/01/27 07:16:49;;;;;;;0.17;0.17;;;-3.90;99.90;;;;;;5090763;28;20156;-69
2021/01/27 07:19:44;;;;;;;0.30;0.30;;;-3.70;99.90;;;;;;5090601;28;20196;-69
2021/01/27 07:22:19;;;;;;;0.20;0.20;;;-3.60;99.90;;;;;;5087008;28;20219;-70
2021/01/27 07:25:06;;;;;;;1.25;1.25;;;-3.50;99.90;;;;;;5090037;28;20203;-69
2021/01/27 07:27:41;;;;;;;0.20;0.20;;;-3.50;99.90;;;;;;5090609;28;20155;-69
2021/01/27 07:30:20;;;;;;;0.32;0.32;;;-3.50;99.90;;;;;;5090871;28;20224;-69
2021/01/27 07:32:59;;;;;;;0.15;0.15;;;-3.40;99.90;;;;;;5089118;28;20256;-70
2021/01/27 07:35:58;;;;;;;0.10;0.10;;;-3.30;99.90;;;;;;5090791;28;20183;-69
2021/01/27 07:38:29;;;;;;;0.10;0.10;;;-3.10;99.90;;;;;;5090348;28;20164;-69
2021/01/27 07:41:05;;;;;;;0.10;0.10;;;-3.00;99.90;;;;;;5090091;28;20164;-69
2021/01/27 07:43:36;;;;;;;0.20;0.20;;;-2.80;99.90;;;;;;5088964;28;20203;-69
2021/01/27 07:46:03;;;;;;;0.10;0.10;;;-2.50;99.90;;;;;;5085251;28;20180;-68
2021/01/27 07:48:49;;;;;;;0.40;0.40;;;-2.20;99.90;;;;;;5090377;28;20275;-69
2021/01/27 07:51:28;;;;;;;0.20;0.20;;;-1.70;99.90;;;;;;5090380;28;20152;-68
2021/01/27 07:54:06;;;;;;;1.10;0.82;;;-1.40;99.90;;;;;;5090351;28;20212;-68
2021/01/27 07:56:37;;;;;;;0.73;0.73;;;-1.10;99.90;;;;;;5090233;28;20164;-68
2021/01/27 07:59:36;;;;;;;0.20;0.20;;;-0.80;99.90;;;;;;5088783;28;20172;-68
2021/01/27 08:02:13;;;;;;;0.60;0.60;;;-0.60;99.90;;;;;;5089950;28;20190;-68
2021/01/27 08:04:49;;;;;;;0.10;0.10;;;-0.40;99.90;;;;;;5088690;28;20192;-68
2021/01/27 08:07:43;;;;;;;5.00;0.85;;;-0.20;99.90;;;;;;5089992;28;20166;-68
2021/01/27 08:10:36;;;;;;;4.38;2.08;;;0.20;99.90;;;;;;5088553;28;20179;-68
2021/01/27 08:13:26;;;;;;;0.63;0.63;;;0.50;99.90;;;;;;5087220;28;20230;-68
2021/01/27 08:16:31;;;;;;;0.22;0.22;;;0.90;99.90;;;;;;5088533;28;20195;-68
2021/01/27 08:19:12;;;;;;;0.65;0.38;;;1.20;99.90;;;;;;5087354;28;20188;-68
2021/01/27 08:21:47;;;;;;;1.23;1.23;;;1.30;99.90;;;;;;5070635;28;20299;-68
2021/01/27 08:24:34;;;;;;;0.15;0.15;;;1.40;99.90;;;;;;5087522;28;20226;-68
2021/01/27 08:27:15;;;;;;;1.30;1.00;;;1.40;99.90;;;;;;5070593;28;20168;-68
2021/01/27 08:29:41;;;;;;;0.20;0.20;;;1.30;99.90;;;;;;5070445;28;20513;-68
2021/01/27 08:32:25;;;;;;;0.20;0.20;;;2.20;99.90;;;;;;5087220;28;20189;-67
2021/01/27 08:34:54;;;;;;;0.10;0.10;;;3.40;99.90;;;;;;5070356;28;20195;-67
2021/01/27 08:37:27;;;;;;;0.20;0.20;;;4.50;99.90;;;;;;5066213;28;20271;-67
2021/01/27 08:40:25;;;;;;;0.40;0.40;;;5.70;99.90;;;;;;5075754;28;20169;-67
2021/01/27 08:42:53;;;;;;;0.10;0.10;;;7.70;99.90;;;;;;5082974;28;20357;-68
2021/01/27 08:45:28;;;;;;;0.65;0.65;;;8.30;99.90;;;;;;5085198;28;20187;-68
2021/01/27 08:47:57;;;;;;;0.30;0.30;;;8.10;99.90;;;;;;5066789;28;20172;-69
2021/01/27 08:50:46;;;;;;;0.65;0.65;;;7.00;99.90;;;;;;5066969;28;20157;-68
2021/01/27 08:53:27;;;;;;;0.90;0.90;;;6.10;99.90;;;;;;5066835;28;20197;-68
2021/01/27 08:56:00;;;;;;;1.35;1.10;;;5.80;99.90;;;;;;5073630;28;20276;-69
2021/01/27 08:58:38;;;;;;;1.23;0.52;;;5.70;99.90;;;;;;5067538;28;20176;-68
2021/01/27 09:01:06;;;;;;;0.20;0.20;;;5.50;99.90;;;;;;5068991;28;20235;-67
2021/01/27 09:03:42;;;;;;;0.45;0.45;;;5.50;99.90;;;;;;5067139;28;20204;-67
2021/01/27 09:06:34;;;;;;;0.55;0.55;;;5.20;99.90;;;;;;5067436;28;20266;-69
2021/01/27 09:09:29;;;;;;;0.25;0.25;;;4.70;99.90;;;;;;5067392;28;20164;-69
2021/01/27 09:12:05;;;;;;;2.05;1.95;;;4.40;99.90;;;;;;5078408;28;20182;-69
2021/01/27 09:14:32;;;;;;;0.50;0.50;;;4.50;99.90;;;;;;5087174;28;20226;-68
2021/01/27 09:16:59;;;;;;;0.10;0.10;;;4.80;99.90;;;;;;5088576;28;20186;-67
2021/01/27 09:19:29;;;;;;;0.73;0.73;;;4.90;99.90;;;;;;5088498;28;20160;-69
2021/01/27 09:22:22;;;;;;;0.95;0.95;;;5.00;99.90;;;;;;5088485;28;20179;-67
2021/01/27 09:24:53;;;;;;;0.10;0.10;;;5.30;99.90;;;;;;5084241;28;20200;-67
2021/01/27 09:27:31;;;;;;;0.10;0.10;;;6.10;99.90;;;;;;5088449;28;20226;-67
2021/01/27 09:30:05;;;;;;;0.15;0.15;;;6.30;99.90;;;;;;5088469;28;20167;-70
2021/01/27 09:32:32;;;;;;;0.75;0.75;;;5.80;99.90;;;;;;5087101;28;20605;-68
2021/01/27 09:35:09;;;;;;;0.20;0.20;;;5.90;99.90;;;;;;5088426;28;20192;-67
2021/01/27 09:37:43;;;;;;;0.65;0.65;;;5.90;99.90;;;;;;5088232;28;20196;-68
2021/01/27 09:40:38;;;;;;;0.30;0.30;;;6.80;99.90;;;;;;5088467;28;20160;-68
2021/01/27 09:43:08;;;;;;;0.10;0.10;;;8.00;99.90;;;;;;5087955;28;20231;-68
2021/01/27 09:45:35;;;;;;;0.65;0.35;;;8.60;99.90;;;;;;5088641;28;20164;-68
2021/01/27 09:48:04;;;;;;;0.38;0.38;;;8.20;99.90;;;;;;5088812;28;20316;-67
2021/01/27 09:50:31;;;;;;;2.83;0.95;;;7.80;99.90;;;;;;5086961;28;20193;-68
2021/01/27 09:53:00;;;;;;;1.05;1.05;;;7.10;99.90;;;;;;5086896;28;20172;-68
2021/01/27 09:55:27;;;;;;;2.92;1.75;;;7.00;99.90;;;;;;5088451;28;20194;-68
2021/01/27 09:57:54;;;;;;;0.82;0.82;;;6.80;99.90;;;;;;5088426;28;20160;-68
2021/01/27 10:00:32;;;;;;;1.30;1.23;;;6.90;99.90;;;;;;5088193;28;20186;-67
2021/01/27 10:03:18;;;;;;;0.95;0.95;;;6.60;99.90;;;;;;5088247;28;20206;-67
2021/01/27 10:05:44;;;;;;;0.32;0.32;;;6.30;99.90;;;;;;5083406;28;20175;-68
2021/01/27 10:08:36;;;;;;;0.40;0.40;;;6.30;99.90;;;;;;5088186;28;20158;-69
2021/01/27 10:11:24;;;;;;;0.43;0.43;;;5.80;99.90;;;;;;5088281;28;20223;-68
2021/01/27 10:13:58;;;;;;;0.30;0.30;;;5.90;99.90;;;;;;5066383;28;20204;-68
2021/01/27 10:16:25;;;;;;;1.98;1.13;;;6.00;99.90;;;;;;5068086;28;20167;-68
2021/01/27 10:19:04;;;;;;;0.20;0.20;;;5.70;99.90;;;;;;5068085;28;20191;-68
2021/01/27 10:21:31;;;;;;;0.10;0.10;;;5.20;99.90;;;;;;5071970;28;20176;-69
2021/01/27 10:23:57;;;;;;;0.95;0.95;;;5.60;99.90;;;;;;5069761;28;20570;-68
2021/01/27 10:26:41;;;;;;;0.00;0.00;;;6.80;99.90;;;;;;5068011;28;20188;-67
2021/01/27 10:29:15;;;;;;;0.63;0.45;;;7.70;99.90;;;;;;5067885;28;20165;-66
2021/01/27 10:31:49;;;;;;;0.13;0.13;;;8.70;99.90;;;;;;5067231;28;20187;-68
2021/01/27 10:34:39;;;;;;;1.42;1.33;;;8.70;99.90;;;;;;5067797;28;20195;-68
2021/01/27 10:37:24;;;;;;;0.47;0.47;;;9.10;99.90;;;;;;5067688;28;20494;-68
2021/01/27 10:40:29;;;;;;;0.40;0.40;;;9.00;99.90;;;;;;5083580;28;20207;-67
2021/01/27 10:43:03;;;;;;;0.22;0.22;;;8.60;99.90;;;;;;5085812;28;20669;-68
2021/01/27 10:45:43;;;;;;;0.68;0.68;;;8.50;99.90;;;;;;5085461;28;20192;-68
2021/01/27 10:48:11;;;;;;;0.95;0.95;;;7.90;99.90;;;;;;5086679;28;20172;-68
2021/01/27 10:50:46;;;;;;;0.20;0.20;;;8.20;99.90;;;;;;5085490;28;20199;-68
2021/01/27 10:53:14;;;;;;;2.63;1.65;;;9.40;99.90;;;;;;5087077;28;20192;-67
2021/01/27 10:55:43;;;;;;;0.45;0.45;;;10.30;99.90;;;;;;5087062;28;20192;-69
2021/01/27 10:58:11;;;;;;;0.10;0.10;;;11.20;99.90;;;;;;5086755;28;20160;-67
2021/01/27 11:00:38;;;;;;;0.15;0.15;;;12.00;99.90;;;;;;5085575;28;20198;-67
2021/01/27 11:03:06;;;;;;;0.20;0.20;;;11.00;99.90;;;;;;5090106;28;20737;-68
2021/01/27 11:05:32;;;;;;;0.10;0.10;;;10.40;99.90;;;;;;5090574;28;20191;-67
2021/01/27 11:07:59;;;;;;;0.15;0.15;;;10.40;99.90;;;;;;5090593;28;20163;-67
2021/01/27 11:10:25;;;;;;;0.10;0.10;;;9.90;99.90;;;;;;5089393;28;20225;-67
2021/01/27 11:12:52;;;;;;;0.63;0.63;;;9.40;99.90;;;;;;5090849;28;20152;-67
2021/01/27 11:15:18;;;;;;;0.60;0.50;;;8.50;99.90;;;;;;5089564;28;20192;-68
2021/01/27 11:17:44;;;;;;;0.20;0.20;;;7.90;99.90;;;;;;5091003;28;20255;-67
2021/01/27 11:20:10;;;;;;;0.43;0.43;;;8.00;99.90;;;;;;5089321;28;20217;-68
2021/01/27 11:22:36;;;;;;;0.10;0.10;;;8.20;99.90;;;;;;5089604;28;20204;-68
2021/01/27 11:25:04;;;;;;;0.57;0.57;;;7.90;99.90;;;;;;5089114;28;20200;-67
2021/01/27 11:27:29;;;;;;;1.48;1.38;;;7.90;99.90;;;;;;5089206;28;20175;-67
2021/01/27 11:29:55;;;;;;;0.40;0.40;;;7.50;99.90;;;;;;5090766;28;20564;-67
2021/01/27 11:32:21;;;;;;;0.20;0.20;;;7.60;99.90;;;;;;5090304;28;20164;-67
2021/01/27 11:34:47;;;;;;;0.50;0.50;;;8.10;99.90;;;;;;5090535;28;20184;-67
2021/01/27 11:37:13;;;;;;;0.32;0.32;;;9.10;99.90;;;;;;5090631;28;20195;-68
2021/01/27 11:39:39;;;;;;;1.08;1.08;;;9.30;99.90;;;;;;5088892;28;20180;-68
2021/01/27 11:42:05;;;;;;;0.40;0.40;;;9.50;99.90;;;;;;5090277;28;20306;-68
2021/01/27 11:44:31;;;;;;;0.15;0.15;;;9.30;99.90;;;;;;5090126;28;20243;-67
2021/01/27 11:46:56;;;;;;;9.30;0.70;;;9.10;99.90;;;;;;5090258;28;20176;-67
2021/01/27 11:49:22;;;;;;;0.68;0.57;;;9.20;99.90;;;;;;5090420;28;20164;-67
2021/01/27 11:51:48;;;;;;;0.22;0.22;;;9.10;99.90;;;;;;5088602;28;20164;-68
2021/01/27 11:54:14;;;;;;;0.98;0.82;;;9.00;99.90;;;;;;5088448;28;20219;-68
2021/01/27 11:56:41;;;;;;;0.40;0.40;;;9.20;99.90;;;;;;5089993;28;20187;-68
2021/01/27 11:59:08;;;;;;;0.15;0.15;;;9.00;99.90;;;;;;5090268;28;20161;-67
2021/01/27 12:01:35;;;;;;;5.88;1.05;;;9.50;99.90;;;;;;5088664;28;20168;-70
2021/01/27 12:04:03;;;;;;;0.10;0.10;;;9.80;99.90;;;;;;5090049;28;20184;-68
2021/01/27 12:06:29;;;;;;;0.57;0.32;;;10.10;99.90;;;;;;5089951;28;20182;-68
2021/01/27 12:08:55;;;;;;;0.10;0.10;;;10.60;99.90;;;;;;5088806;28;20168;-68
2021/01/27 12:11:21;;;;;;;0.88;0.88;;;10.80;99.90;;;;;;5088390;28;20196;-68
2021/01/27 12:13:47;;;;;;;3.95;1.58;;;10.80;99.90;;;;;;5089223;28;20196;-68
2021/01/27 12:16:14;;;;;;;0.13;0.13;;;10.30;99.90;;;;;;5089563;28;20741;-67
2021/01/27 12:18:41;;;;;;;0.10;0.10;;;9.80;99.90;;;;;;5089510;28;20156;-68
2021/01/27 12:21:06;;;;;;;0.10;0.10;;;9.60;99.90;;;;;;5089814;28;20594;-68
2021/01/27 12:23:32;;;;;;;0.10;0.10;;;9.50;99.90;;;;;;5088231;28;20192;-67
2021/01/27 12:25:58;;;;;;;0.40;0.40;;;9.80;99.90;;;;;;5089176;28;20208;-67
2021/01/27 12:28:24;;;;;;;0.10;0.10;;;9.70;99.90;;;;;;5089331;28;20162;-67
2021/01/27 12:30:50;;;;;;;0.10;0.10;;;9.00;99.90;;;;;;5087559;28;20172;-67
2021/01/27 12:33:16;;;;;;;0.43;0.43;;;8.80;99.90;;;;;;5089227;28;20216;-67
2021/01/27 12:35:42;;;;;;;0.30;0.30;;;9.30;99.90;;;;;;5089370;28;20192;-67
2021/01/27 12:38:08;;;;;;;0.10;0.10;;;9.90;99.90;;;;;;5089132;28;20188;-68
2021/01/27 12:40:34;;;;;;;0.10;0.10;;;10.50;99.90;;;;;;5074308;28;20495;-67
2021/01/27 12:43:00;;;;;;;5.00;0.60;;;10.30;99.90;;;;;;5068705;28;20227;-67
2021/01/27 12:45:28;;;;;;;0.22;0.22;;;9.30;99.90;;;;;;5072793;28;20195;-67
2021/01/27 12:47:55;;;;;;;0.13;0.13;;;8.10;99.90;;;;;;5087192;28;20164;-67
2021/01/27 12:50:22;;;;;;;0.10;0.10;;;7.10;99.90;;;;;;5088686;28;20205;-67
2021/01/27 12:52:49;;;;;;;0.20;0.20;;;6.60;99.90;;;;;;5088413;28;20224;-67
2021/01/27 12:55:17;;;;;;;1.75;1.38;;;6.30;99.90;;;;;;5088716;28;20199;-67
2021/01/27 12:57:45;;;;;;;0.20;0.20;;;6.30;99.90;;;;;;5089249;28;20152;-70
2021/01/27 13:00:16;;;;;;;0.10;0.10;;;6.00;99.90;;;;;;5088019;28;20222;-69
2021/01/27 13:02:41;;;;;;;0.10;0.10;;;6.00;99.90;;;;;;5088099;28;20316;-69
2021/01/27 13:05:08;;;;;;;0.20;0.20;;;6.10;99.90;;;;;;5088068;28;20196;-69
2021/01/27 13:07:34;;;;;;;0.10;0.10;;;6.20;99.90;;;;;;5088785;28;20167;-68
2021/01/27 13:09:59;;;;;;;0.60;0.60;;;6.20;99.90;;;;;;5087630;28;20168;-69
2021/01/27 13:12:25;;;;;;;0.50;0.50;;;6.30;99.90;;;;;;5088392;28;20156;-69
2021/01/27 13:14:52;;;;;;;0.10;0.10;;;6.20;99.90;;;;;;5088306;28;20203;-69
2021/01/27 13:17:18;;;;;;;0.10;0.10;;;6.10;99.90;;;;;;5087289;28;20562;-69
2021/01/27 13:19:44;;;;;;;1.08;1.02;;;5.90;99.90;;;;;;5088223;28;20156;-68
2021/01/27 13:22:09;;;;;;;0.10;0.10;;;5.90;99.90;;;;;;5087108;28;20249;-68
2021/01/27 13:24:35;;;;;;;0.10;0.10;;;5.90;99.90;;;;;;5087615;28;20786;-67